Aviation Digital Data Service (ADDS)

Output produced by METARs form (1823 UTC 26 September 2017)
found at http://aviationweather.gov/adds/metars/
 
KGNV 261729Z 2618/2718 01005KT P6SM SCT040 
     FM270200 00000KT P6SM SKC